createdAt,value
2023-01-23T00:00:06.632Z,49.46
2023-01-23T00:02:35.644Z,50.17
2023-01-23T00:05:03.371Z,50.71
2023-01-23T00:07:33.829Z,51.38
2023-01-23T00:10:01.453Z,51.92
2023-01-23T00:12:29.115Z,52.09
2023-01-23T00:14:56.716Z,52.73
2023-01-23T00:17:27.085Z,53.28
2023-01-23T00:19:56.311Z,53.38
2023-01-23T00:22:23.930Z,53.63
2023-01-23T00:24:51.563Z,53.80
2023-01-23T00:27:19.216Z,54.12
2023-01-23T00:29:47.505Z,54.32
2023-01-23T00:32:15.121Z,54.51
2023-01-23T00:34:42.902Z,54.88
2023-01-23T00:37:11.908Z,54.96
2023-01-23T00:39:39.655Z,55.41
2023-01-23T00:42:07.634Z,55.49
2023-01-23T00:44:35.315Z,55.42
2023-01-23T00:47:02.940Z,55.40
2023-01-23T00:49:31.285Z,55.89
2023-01-23T00:51:58.929Z,55.91
2023-01-23T00:54:28.071Z,56.24
2023-01-23T00:56:55.758Z,56.15
2023-01-23T00:59:23.412Z,56.40
2023-01-23T01:01:51.098Z,56.54
2023-01-23T01:04:18.832Z,56.54
2023-01-23T01:06:46.462Z,56.73
2023-01-23T01:09:14.108Z,56.76
2023-01-23T01:11:43.110Z,56.79
2023-01-23T01:14:11.040Z,56.98
2023-01-23T01:16:40.887Z,56.72
2023-01-23T01:19:08.545Z,57.00
2023-01-23T01:21:36.837Z,57.22
2023-01-23T01:24:04.772Z,57.02
2023-01-23T01:26:32.511Z,57.43
2023-01-23T01:29:01.564Z,57.65
2023-01-23T01:31:29.361Z,57.49
2023-01-23T01:33:57.102Z,57.77
2023-01-23T01:36:25.676Z,57.45
2023-01-23T01:38:53.297Z,57.63
2023-01-23T01:41:21.005Z,57.58
2023-01-23T01:43:48.695Z,57.81
2023-01-23T01:46:22.848Z,57.95
2023-01-23T01:49:03.185Z,58.01
2023-01-23T01:51:35.031Z,57.81
2023-01-23T01:54:09.543Z,58.29
2023-01-23T01:56:43.628Z,58.37
2023-01-23T01:59:12.758Z,58.04
2023-01-23T02:01:44.281Z,58.09
2023-01-23T02:04:12.352Z,58.31
2023-01-23T02:06:40.265Z,58.35
2023-01-23T02:09:13.671Z,58.43
2023-01-23T02:11:41.386Z,58.55
2023-01-23T02:14:10.280Z,58.52
2023-01-23T02:16:42.775Z,58.68
2023-01-23T02:19:25.564Z,58.66
2023-01-23T02:22:00.529Z,58.68
2023-01-23T02:24:37.087Z,58.68
2023-01-23T02:27:06.132Z,58.61
2023-01-23T02:29:43.148Z,58.71
2023-01-23T02:32:11.116Z,58.51
2023-01-23T02:34:38.812Z,59.28
2023-01-23T02:37:08.177Z,59.20
2023-01-23T02:39:35.876Z,58.64
2023-01-23T02:42:04.761Z,59.09
2023-01-23T02:44:33.772Z,58.66
2023-01-23T02:47:04.010Z,59.15
2023-01-23T02:49:32.550Z,59.54
2023-01-23T02:52:00.209Z,59.05
2023-01-23T02:54:27.802Z,59.22
2023-01-23T02:56:57.204Z,59.30
2023-01-23T02:59:42.406Z,59.23
2023-01-23T03:02:12.247Z,59.19
2023-01-23T03:04:39.908Z,59.30
2023-01-23T03:07:07.591Z,58.97
2023-01-23T03:09:35.245Z,59.28
2023-01-23T03:12:02.941Z,59.59
2023-01-23T03:14:32.332Z,59.05
2023-01-23T03:17:00.178Z,59.30
2023-01-23T03:19:29.298Z,59.41
2023-01-23T03:21:57.049Z,59.71
2023-01-23T03:24:24.718Z,59.35
2023-01-23T03:26:52.995Z,59.32
2023-01-23T03:29:40.467Z,59.47
2023-01-23T03:32:08.977Z,59.28
2023-01-23T03:34:38.288Z,59.68
2023-01-23T03:37:07.921Z,59.53
2023-01-23T03:39:53.513Z,59.37
2023-01-23T03:42:21.816Z,59.57
2023-01-23T03:44:49.472Z,59.87
2023-01-23T03:47:17.141Z,59.65
2023-01-23T03:49:46.123Z,59.71
2023-01-23T03:52:13.787Z,59.73
2023-01-23T03:54:42.259Z,59.39
2023-01-23T03:57:10.167Z,59.67
2023-01-23T03:59:38.040Z,59.70
2023-01-23T04:02:05.898Z,59.72
2023-01-23T04:04:33.979Z,59.87
2023-01-23T04:07:03.934Z,59.73
2023-01-23T04:09:31.660Z,59.82
2023-01-23T04:12:00.413Z,59.75
2023-01-23T04:14:30.533Z,59.88
2023-01-23T04:16:59.248Z,59.83
2023-01-23T04:19:26.925Z,59.92
2023-01-23T04:21:54.556Z,60.08
2023-01-23T04:24:23.799Z,60.06
2023-01-23T04:26:51.426Z,59.96
2023-01-23T04:29:19.116Z,60.23
2023-01-23T04:31:46.969Z,59.95
2023-01-23T04:34:14.667Z,60.15
2023-01-23T04:36:42.324Z,59.98
2023-01-23T04:39:09.957Z,60.07
2023-01-23T04:41:38.913Z,60.13
2023-01-23T04:47:00.168Z,60.14
2023-01-23T04:49:28.289Z,60.15
2023-01-23T04:51:56.139Z,60.12
2023-01-23T04:54:23.808Z,60.13
2023-01-23T04:56:51.485Z,59.95
2023-01-23T04:59:19.140Z,60.10
2023-01-23T05:01:46.765Z,60.14
2023-01-23T05:04:15.791Z,60.29
2023-01-23T05:06:43.447Z,59.99
2023-01-23T05:09:11.457Z,60.19
2023-01-23T05:11:39.123Z,60.19
2023-01-23T05:14:06.930Z,60.12
2023-01-23T05:16:34.585Z,60.13
2023-01-23T05:19:02.264Z,60.18
2023-01-23T05:21:31.242Z,60.18
2023-01-23T05:23:58.868Z,60.22
2023-01-23T05:26:26.560Z,60.21
2023-01-23T05:28:54.190Z,60.22
2023-01-23T05:31:21.942Z,60.32
2023-01-23T05:33:49.680Z,60.21
2023-01-23T05:36:18.616Z,59.96
2023-01-23T05:38:47.730Z,60.27
2023-01-23T05:41:15.418Z,59.92
2023-01-23T05:43:43.892Z,60.24
2023-01-23T05:46:11.527Z,60.22
2023-01-23T05:48:39.145Z,60.37
2023-01-23T05:51:07.097Z,60.31
2023-01-23T05:53:34.712Z,60.28
2023-01-23T05:56:08.119Z,60.39
2023-01-23T05:58:35.868Z,60.64
2023-01-23T06:01:03.647Z,60.47
2023-01-23T06:03:31.387Z,60.27
2023-01-23T06:05:59.087Z,60.34
2023-01-23T06:08:26.684Z,60.62
2023-01-23T06:10:54.376Z,60.55
2023-01-23T06:13:23.340Z,60.45
2023-01-23T06:15:51.030Z,60.65
2023-01-23T06:18:18.867Z,60.60
2023-01-23T06:20:46.605Z,60.53
2023-01-23T06:23:14.249Z,60.54
2023-01-23T06:25:43.367Z,60.88
2023-01-23T06:28:10.979Z,60.70
2023-01-23T06:30:39.993Z,61.10
2023-01-23T06:33:07.717Z,60.99
2023-01-23T06:35:35.339Z,60.64
2023-01-23T06:38:02.973Z,60.81
2023-01-23T06:40:30.628Z,60.75
2023-01-23T06:42:58.603Z,60.46
2023-01-23T06:45:26.220Z,60.68
2023-01-23T06:47:55.268Z,60.93
2023-01-23T06:50:23.211Z,60.85
2023-01-23T06:52:50.940Z,60.60
2023-01-23T06:55:18.805Z,60.81
2023-01-23T06:57:46.485Z,60.91
2023-01-23T07:00:15.705Z,61.07
2023-01-23T07:02:45.549Z,60.86
2023-01-23T07:05:14.806Z,60.84
2023-01-23T07:07:42.500Z,60.87
2023-01-23T07:10:11.873Z,60.94
2023-01-23T07:12:39.492Z,60.86
2023-01-23T07:15:08.410Z,60.99
2023-01-23T07:17:36.155Z,60.88
2023-01-23T07:20:03.820Z,61.03
2023-01-23T07:22:32.796Z,61.08
2023-01-23T07:25:00.447Z,60.72
2023-01-23T07:27:28.093Z,61.22
2023-01-23T07:29:55.717Z,61.04
2023-01-23T07:32:23.362Z,61.13
2023-01-23T07:34:53.123Z,61.10
2023-01-23T07:37:20.762Z,61.22
2023-01-23T07:39:50.708Z,61.21
2023-01-23T07:42:18.356Z,61.30
2023-01-23T07:44:46.004Z,61.12
2023-01-23T07:47:13.643Z,61.24
2023-01-23T07:49:41.315Z,61.15
2023-01-23T07:52:09.081Z,61.22
2023-01-23T07:54:36.774Z,61.08
2023-01-23T07:57:05.821Z,61.21
2023-01-23T07:59:33.658Z,60.94
2023-01-23T08:02:01.320Z,61.19
2023-01-23T08:04:28.980Z,61.26
2023-01-23T08:06:56.667Z,61.22
2023-01-23T08:09:24.374Z,61.19
2023-01-23T08:11:52.771Z,61.17
2023-01-23T08:14:21.809Z,60.98
2023-01-23T08:16:50.782Z,61.34
2023-01-23T08:19:18.835Z,61.27
2023-01-23T08:21:47.110Z,61.09
2023-01-23T08:24:15.396Z,61.45
2023-01-23T08:26:43.354Z,61.30
2023-01-23T08:29:11.703Z,61.11
2023-01-23T08:31:41.146Z,61.38
2023-01-23T08:34:08.868Z,61.32
2023-01-23T08:36:36.533Z,61.48
2023-01-23T08:39:04.611Z,61.43
2023-01-23T08:41:32.306Z,61.34
2023-01-23T08:44:01.787Z,61.53
2023-01-23T08:46:29.999Z,61.35
2023-01-23T08:48:58.974Z,61.65
2023-01-23T08:51:27.339Z,61.43
2023-01-23T08:53:55.249Z,61.37
2023-01-23T08:56:25.134Z,61.63
2023-01-23T08:58:53.215Z,61.83
2023-01-23T09:01:22.693Z,61.48
2023-01-23T09:03:50.616Z,61.55
2023-01-23T09:06:21.869Z,61.52
2023-01-23T09:08:50.008Z,61.44
2023-01-23T09:11:22.680Z,61.53
2023-01-23T09:13:53.806Z,61.52
2023-01-23T09:16:21.716Z,61.67
2023-01-23T09:18:49.365Z,61.50
2023-01-23T09:21:19.177Z,61.30
2023-01-23T09:23:47.085Z,61.51
2023-01-23T09:26:17.228Z,61.56
2023-01-23T09:28:46.506Z,61.59
2023-01-23T09:31:15.379Z,61.56
2023-01-23T09:33:43.155Z,61.75
2023-01-23T09:36:11.931Z,61.54
2023-01-23T09:38:41.634Z,61.91
2023-01-23T09:41:12.537Z,61.60
2023-01-23T09:43:45.035Z,61.56
2023-01-23T09:46:21.678Z,61.62
2023-01-23T09:48:54.551Z,61.95
2023-01-23T09:51:28.231Z,61.65
2023-01-23T09:54:03.130Z,61.78
2023-01-23T09:56:36.211Z,61.56
2023-01-23T09:59:12.963Z,61.57
2023-01-23T10:01:40.942Z,61.70
2023-01-23T10:04:12.505Z,61.71
2023-01-23T10:07:01.228Z,61.93
2023-01-23T10:09:42.755Z,61.78
2023-01-23T10:12:22.553Z,61.69
2023-01-23T10:15:05.891Z,61.74
2023-01-23T10:17:42.897Z,61.69
2023-01-23T10:20:36.925Z,61.79
2023-01-23T10:23:13.944Z,61.91
2023-01-23T10:25:43.746Z,61.67
2023-01-23T10:28:23.172Z,61.75
2023-01-23T10:30:56.142Z,61.77
2023-01-23T10:33:35.645Z,61.50
2023-01-23T10:36:08.950Z,61.81
2023-01-23T10:38:43.157Z,61.43
2023-01-23T10:41:21.196Z,61.50
2023-01-23T10:43:53.083Z,61.82
2023-01-23T10:46:22.848Z,61.86
2023-01-23T10:48:51.792Z,61.89
2023-01-23T10:51:26.370Z,61.76
2023-01-23T10:54:31.712Z,61.61
2023-01-23T10:57:03.290Z,61.57
2023-01-23T10:59:35.411Z,61.80
2023-01-23T11:02:19.393Z,61.72
2023-01-23T11:04:48.854Z,61.87
2023-01-23T11:07:18.993Z,61.74
2023-01-23T11:09:50.236Z,61.83
2023-01-23T11:12:21.784Z,61.83
2023-01-23T11:14:50.324Z,61.62
2023-01-23T11:17:21.559Z,61.72
2023-01-23T11:19:51.700Z,61.64
2023-01-23T11:22:33.877Z,61.46
2023-01-23T11:25:15.302Z,61.59
2023-01-23T11:27:58.061Z,61.76
2023-01-23T11:30:37.310Z,61.68
2023-01-23T11:33:14.193Z,61.85
2023-01-23T11:36:03.344Z,61.65
2023-01-23T11:38:42.098Z,61.87
2023-01-23T11:41:16.158Z,61.85
2023-01-23T11:43:45.157Z,61.96
2023-01-23T11:46:26.887Z,61.74
2023-01-23T11:49:09.649Z,61.92
2023-01-23T11:51:43.134Z,61.86
2023-01-23T11:54:27.886Z,62.02
2023-01-23T11:57:03.513Z,61.79
2023-01-23T11:59:54.863Z,62.04
2023-01-23T12:03:21.085Z,61.99
2023-01-23T12:06:19.589Z,62.09
2023-01-23T12:08:54.029Z,61.90
2023-01-23T12:11:24.609Z,62.29
2023-01-23T12:14:12.177Z,61.74
2023-01-23T12:16:58.526Z,62.04
2023-01-23T12:19:37.121Z,62.10
2023-01-23T12:22:11.596Z,62.09
2023-01-23T12:24:53.047Z,61.90
2023-01-23T12:27:28.143Z,62.12
2023-01-23T12:30:12.781Z,62.25
2023-01-23T12:33:01.497Z,62.03
2023-01-23T12:35:37.708Z,62.08
2023-01-23T12:38:14.255Z,61.81
2023-01-23T12:40:47.401Z,62.22
2023-01-23T12:43:20.614Z,62.30
2023-01-23T12:45:53.661Z,62.35
2023-01-23T12:48:28.490Z,61.78
2023-01-23T12:51:01.963Z,62.17
2023-01-23T12:53:36.045Z,62.27
2023-01-23T12:56:08.932Z,62.23
2023-01-23T12:58:38.560Z,62.24
2023-01-23T13:01:16.178Z,62.23
2023-01-23T13:04:06.872Z,62.32
2023-01-23T13:06:48.396Z,62.10
2023-01-23T13:09:27.392Z,62.16
2023-01-23T13:12:05.572Z,62.28
2023-01-23T13:17:42.066Z,62.25
2023-01-23T13:20:44.180Z,61.96
2023-01-23T13:23:23.492Z,62.25
2023-01-23T13:25:51.857Z,62.21
2023-01-23T13:28:44.510Z,62.14
2023-01-23T13:31:27.932Z,62.29
2023-01-23T13:34:06.524Z,62.20
2023-01-23T13:36:39.370Z,62.38
2023-01-23T13:39:27.156Z,62.42
2023-01-23T13:42:35.906Z,62.40
2023-01-23T13:45:26.920Z,62.45
2023-01-23T14:22:08.039Z,62.61
2023-01-23T14:24:44.692Z,62.46
2023-01-23T14:27:22.015Z,62.41
2023-01-23T14:29:59.214Z,62.56
2023-01-23T14:32:30.177Z,62.41
2023-01-23T14:34:57.887Z,62.53
2023-01-23T14:37:26.499Z,62.23
2023-01-23T14:39:57.930Z,62.46
2023-01-23T14:42:30.286Z,62.31
2023-01-23T14:45:01.939Z,62.36
2023-01-23T14:47:34.651Z,62.34
2023-01-23T14:50:04.419Z,62.73
2023-01-23T14:52:32.757Z,62.54
2023-01-23T14:55:07.704Z,62.76
2023-01-23T14:57:39.707Z,62.14
2023-01-23T15:00:16.131Z,62.37
2023-01-23T15:02:45.889Z,62.19
2023-01-23T15:05:22.766Z,62.61
2023-01-23T15:07:59.470Z,62.62
2023-01-23T15:10:29.096Z,61.93
2023-01-23T15:13:02.037Z,62.42
2023-01-23T15:15:30.940Z,62.37
2023-01-23T15:18:00.598Z,62.30
2023-01-23T15:20:32.015Z,62.43
2023-01-23T15:23:21.797Z,62.50
2023-01-23T15:25:57.498Z,62.49
2023-01-23T15:28:40.066Z,62.31
2023-01-23T15:31:25.119Z,59.99
2023-01-23T15:33:52.909Z,62.42
2023-01-23T15:36:27.026Z,62.11
2023-01-23T15:38:55.477Z,62.07
2023-01-23T15:41:40.769Z,62.03
2023-01-23T15:44:17.343Z,62.19
2023-01-23T15:46:45.241Z,62.29
2023-01-23T15:49:24.438Z,62.09
2023-01-23T15:51:55.455Z,61.95
2023-01-23T15:54:26.877Z,62.04
2023-01-23T15:57:06.448Z,61.90
2023-01-23T15:59:37.902Z,62.11
2023-01-23T16:02:05.859Z,61.95
2023-01-23T16:04:33.676Z,61.81
2023-01-23T16:07:06.342Z,61.85
2023-01-23T16:09:36.965Z,61.95
2023-01-23T16:12:05.603Z,61.82
2023-01-23T16:14:33.271Z,61.69
2023-01-23T16:17:15.285Z,61.81
2023-01-23T16:19:43.873Z,61.94
2023-01-23T16:22:15.302Z,61.61
2023-01-23T16:24:43.566Z,61.94
2023-01-23T16:27:17.394Z,62.13
2023-01-23T16:29:45.155Z,62.05
2023-01-23T16:32:14.219Z,62.40
2023-01-23T16:34:42.039Z,62.00
2023-01-23T16:37:15.470Z,62.12
2023-01-23T16:39:45.303Z,62.17
2023-01-23T16:42:19.589Z,62.04
2023-01-23T16:44:47.319Z,62.08
2023-01-23T16:47:16.313Z,62.03
2023-01-23T16:49:51.967Z,62.08
2023-01-23T16:52:21.617Z,62.04
2023-01-23T16:54:52.361Z,62.04
2023-01-23T16:57:22.012Z,61.93
2023-01-23T16:59:50.907Z,61.95
2023-01-23T17:02:23.420Z,62.24
2023-01-23T17:04:51.297Z,61.92
2023-01-23T17:07:20.385Z,62.05
2023-01-23T17:09:49.293Z,62.06
2023-01-23T17:12:21.585Z,62.06
2023-01-23T17:14:52.525Z,61.96
2023-01-23T17:17:27.784Z,61.97
2023-01-23T17:19:55.548Z,62.18
2023-01-23T17:22:26.567Z,62.17
2023-01-23T17:24:54.236Z,61.94
2023-01-23T17:27:21.958Z,62.17
2023-01-23T17:29:49.989Z,61.90
2023-01-23T17:32:28.071Z,62.06
2023-01-23T17:34:56.070Z,62.50
2023-01-23T17:37:24.495Z,62.03
2023-01-23T17:39:52.378Z,62.22
2023-01-23T17:42:21.871Z,62.04
2023-01-23T17:44:49.592Z,62.20
2023-01-23T17:47:17.971Z,62.52
2023-01-23T17:49:54.307Z,62.29
2023-01-23T17:52:22.475Z,62.28
2023-01-23T17:54:50.130Z,62.55
2023-01-23T17:57:17.755Z,62.41
2023-01-23T17:59:45.657Z,61.96
2023-01-23T18:02:25.999Z,62.13
2023-01-23T18:04:55.055Z,62.25
2023-01-23T18:07:22.710Z,61.91
2023-01-23T18:09:50.664Z,62.52
2023-01-23T18:12:25.935Z,62.50
2023-01-23T18:14:57.148Z,62.24
2023-01-23T18:17:34.483Z,62.23
2023-01-23T18:20:04.956Z,62.39
2023-01-23T18:22:33.117Z,62.26
2023-01-23T18:25:01.276Z,62.21
2023-01-23T18:27:30.440Z,62.15
2023-01-23T18:30:21.005Z,62.12
2023-01-23T18:33:05.548Z,62.21
2023-01-23T18:35:53.589Z,62.49
2023-01-23T18:38:29.613Z,62.21
2023-01-23T18:41:08.925Z,62.44
2023-01-23T18:43:39.902Z,62.35
2023-01-23T18:46:14.645Z,62.25
2023-01-23T18:48:44.051Z,62.27
2023-01-23T18:51:29.665Z,62.26
2023-01-23T18:54:05.930Z,62.16
2023-01-23T18:56:40.401Z,62.58
2023-01-23T18:59:20.070Z,62.27
2023-01-23T19:01:54.335Z,62.15
2023-01-23T19:04:31.501Z,62.16
2023-01-23T19:07:01.828Z,62.46
2023-01-23T19:09:34.585Z,62.17
2023-01-23T19:12:20.534Z,62.22
2023-01-23T19:15:05.960Z,62.45
2023-01-23T19:17:43.329Z,51.15
2023-01-23T19:20:32.899Z,55.84
2023-01-23T19:23:23.012Z,65.72
2023-01-23T19:25:51.084Z,62.88
2023-01-23T19:28:19.220Z,63.23
2023-01-23T19:30:47.516Z,61.95
2023-01-23T19:33:16.885Z,61.64
2023-01-23T19:35:44.756Z,60.99
2023-01-23T19:38:14.908Z,60.57
2023-01-23T19:40:42.780Z,60.60
2023-01-23T19:43:15.447Z,60.79
2023-01-23T19:45:43.370Z,60.12
2023-01-23T19:48:11.897Z,60.08
2023-01-23T19:50:40.281Z,60.35
2023-01-23T19:53:08.064Z,60.26
2023-01-23T19:55:38.360Z,60.42
2023-01-23T19:58:06.365Z,60.55
2023-01-23T20:00:36.127Z,60.32
2023-01-23T20:03:04.991Z,60.65
2023-01-23T20:05:33.065Z,61.16
2023-01-23T20:08:01.079Z,60.98
2023-01-23T20:10:29.016Z,60.77
2023-01-23T20:12:57.998Z,61.49
2023-01-23T20:15:26.896Z,61.03
2023-01-23T20:17:55.196Z,61.40
2023-01-23T20:20:23.608Z,61.25
2023-01-23T20:22:51.520Z,61.29
2023-01-23T20:25:19.545Z,60.90
2023-01-23T20:27:47.435Z,61.43
2023-01-23T20:30:18.217Z,61.00
2023-01-23T20:32:46.321Z,61.12
2023-01-23T20:35:13.976Z,61.07
2023-01-23T20:37:41.691Z,61.52
2023-01-23T20:40:11.472Z,61.51
2023-01-23T20:42:39.652Z,61.13
2023-01-23T20:45:08.389Z,61.21
2023-01-23T20:47:37.968Z,61.24
2023-01-23T20:50:06.440Z,61.21
2023-01-23T20:53:03.004Z,61.48
2023-01-23T20:55:30.655Z,61.38
2023-01-23T20:58:15.929Z,61.13
2023-01-23T21:00:44.908Z,60.95
2023-01-23T21:03:13.904Z,61.22
2023-01-23T21:05:41.577Z,60.93
2023-01-23T21:08:09.603Z,61.08
2023-01-23T21:10:37.262Z,61.19
2023-01-23T21:13:04.893Z,61.24
2023-01-23T21:15:33.407Z,61.39
2023-01-23T21:18:01.128Z,61.16
2023-01-23T21:20:30.104Z,61.30
2023-01-23T21:22:57.770Z,61.54
2023-01-23T21:25:25.427Z,61.37
2023-01-23T21:27:53.107Z,61.19
2023-01-23T21:30:21.105Z,61.31
2023-01-23T21:32:50.335Z,61.29
2023-01-23T21:35:18.105Z,61.55
2023-01-23T21:37:47.100Z,61.77
2023-01-23T21:40:15.116Z,61.75
2023-01-23T21:42:42.732Z,61.63
2023-01-23T21:45:11.187Z,61.67
2023-01-23T21:47:38.798Z,61.64
2023-01-23T21:50:07.432Z,62.01
2023-01-23T21:52:35.055Z,62.12
2023-01-23T21:55:04.124Z,62.02
2023-01-23T21:57:31.753Z,62.05
2023-01-23T22:00:17.122Z,61.89
2023-01-23T22:02:44.761Z,63.45
2023-01-23T22:05:12.433Z,62.97
2023-01-23T22:07:40.148Z,63.23
2023-01-23T22:10:10.309Z,63.52
2023-01-23T22:12:37.916Z,63.11
2023-01-23T22:15:06.411Z,63.36
2023-01-23T22:17:34.318Z,63.18
2023-01-23T22:20:01.946Z,63.30
2023-01-23T22:22:29.753Z,63.26
2023-01-23T22:24:57.372Z,63.30
2023-01-23T22:27:26.350Z,63.49
2023-01-23T22:29:53.983Z,63.25
2023-01-23T22:32:21.792Z,63.29
2023-01-23T22:34:49.524Z,63.51
2023-01-23T22:37:17.449Z,63.48
2023-01-23T22:39:45.097Z,63.23
2023-01-23T22:42:12.738Z,63.71
2023-01-23T22:44:41.763Z,63.40
2023-01-23T22:47:09.442Z,63.46
2023-01-23T22:49:37.121Z,63.49
2023-01-23T22:52:04.933Z,63.71
2023-01-23T22:54:32.566Z,63.44
2023-01-23T22:57:00.222Z,63.48
2023-01-23T22:59:28.080Z,63.42
2023-01-23T23:01:57.061Z,63.47
2023-01-23T23:04:24.720Z,63.59
2023-01-23T23:06:52.318Z,63.46
2023-01-23T23:09:19.971Z,63.31
2023-01-23T23:11:50.049Z,63.15
2023-01-23T23:14:17.680Z,63.53
2023-01-23T23:16:45.890Z,63.41
2023-01-23T23:19:14.898Z,63.57
2023-01-23T23:21:42.628Z,63.25
2023-01-23T23:24:13.976Z,63.33
2023-01-23T23:26:41.877Z,63.53
2023-01-23T23:29:09.575Z,63.35
2023-01-23T23:31:37.480Z,63.66
2023-01-23T23:34:05.178Z,63.93
2023-01-23T23:36:34.274Z,63.59
2023-01-23T23:39:02.179Z,63.59
2023-01-23T23:41:29.934Z,63.14
2023-01-23T23:43:57.547Z,63.55
2023-01-23T23:46:25.208Z,63.61
2023-01-23T23:48:52.841Z,63.37
2023-01-23T23:51:22.768Z,63.57
2023-01-23T23:53:51.856Z,63.40
2023-01-23T23:56:22.168Z,63.25
2023-01-23T23:58:50.711Z,63.44
